ADDS METAR Data INFO
IDs: Format: Raw Decoded Include TAF

Data at: 2258 UTC 22 Jun 2018

KROA 222254Z 16011KT 4SM +TSRA BR FEW018 BKN029CB OVC065 22/21 A2985 RMK AO2 RAB07 TSB44 PRESRR SLP095 OCNL LTGICCG E-W TS E-W MOV NE P0040 T02220211
KROA 222244Z 00000KT 10SM -TSRA FEW022 BKN029 OVC065 22/21 A2983 RMK AO2 RAB07 TSB44 OCNL LTGICCG E-W TS E-W MOV NE P0023 T02220206
KROA 222154Z 06005KT 10SM BKN036 BKN044 BKN065 23/21 A2981 RMK AO2 RAB00E29 SLP085 P0002 T02280211
KROA 222054Z 03005KT 10SM FEW007 BKN050 BKN070 23/21 A2982 RMK AO2 WSHFT 1947 RAE35 TSB24E48 SLP088 P0049 60049 T02280206 53000
KROA 222038Z 02005KT 10SM TS FEW006 SCT020 BKN044 23/21 A2981 RMK AO2 WSHFT 1947 RAE35 TSB24 OCNL LTGICCG N-NE TS N-NE MOV NE P0049 T02280211
KROA 222031Z 06009KT 1/2SM -TSRA BR FEW005 SCT020 BKN041 23/22 A2981 RMK AO2 WSHFT 1947 SFC VIS 3 TSB24 OCNL LTGICCG N-NE TS N-NE MOV NE P0049 T02330217
KROA 222024Z 02005KT 1/2SM +TSRA BR SCT021 BKN026 OVC049 22/21 A2980 RMK AO2 WSHFT 1947 SFC VIS 3/4 TSB24 OCNL LTGICCG N-NE TS N-NE MOV NE P0046 T02220211
KROA 222019Z 30007KT 1/2SM +RA BR BKN026 BKN037 OVC049 22/21 A2982 RMK AO2 WSHFT 1947 SFC VIS 3/4 P0026 T02220206
KROA 222016Z 25008KT 5SM +RA SCT026 BKN034 OVC049 23/20 A2982 RMK AO2 WSHFT 1947 P0023 T02280200
KROA 222005Z 33009KT 2 1/2SM +RA FEW021 BKN028 OVC038 22/19 A2982 RMK AO2 WSHFT 1947 P0004 T02170189
KROA 221954Z 33012G20KT 7SM -RA BKN026 BKN040 23/19 A2981 RMK AO2 RAB49 SLP083 P0000 T02280189
KROA 221854Z 13008KT 110V170 10SM FEW031 SCT041 SCT110 29/21 A2981 RMK AO2 SLP080 T02890206
KROA 221754Z 16004KT 10SM SCT030 SCT035 BKN041 28/20 A2982 RMK AO2 SLP086 T02780200 10289 20217 58014
KROA 221654Z 13006KT 10SM BKN032 OVC039 27/21 A2985 RMK AO2 SLP095 T02720206
KROA 221554Z 00000KT 10SM BKN030 BKN049 28/20 A2986 RMK AO2 SLP099 T02780200
KROA 221514Z 00000KT 10SM SCT026 BKN055 27/20 A2987 RMK AO2 T02670200
KROA 221454Z 12004KT 10SM BKN020 BKN028 26/19 A2987 RMK AO2 SLP100 T02560194 58002
KROA 221414Z 00000KT 10SM BKN017 26/21 A2988 RMK AO2 T02560206
KROA 221354Z COR 00000KT 10SM BKN016 26/21 A2988 RMK AO2 SLP106 T02560206
KROA 221338Z 00000KT 10SM SCT012 24/21 A2988 RMK AO2 T02440206
KROA 221254Z 00000KT 10SM BKN010 24/21 A2987 RMK AO2 SLP103 T02390206
KROA 221243Z 27003KT 10SM BKN010 24/21 A2987 RMK AO2 T02390206
KROA 221205Z 24004KT 10SM SCT004 22/21 A2987 RMK AO2 T02170206
KROA 221154Z 24004KT 10SM BKN003 22/21 A2987 RMK AO2 SLP102 70093 T02170206 10222 20211 53012
KROA 221115Z 25004KT 9SM BKN002 BKN010 BKN015 21/21 A2986 RMK AO2 T02110206
KROA 221054Z 28003KT 10SM SCT010 22/21 A2986 RMK AO2 SLP097 T02170206
KROA 221013Z 00000KT 10SM BKN010 BKN015 22/21 A2985 RMK AO2 T02170206
KROA 220954Z 00000KT 10SM FEW010 22/21 A2984 RMK AO2 SLP091 T02170206
KROA 220951Z 00000KT 10SM FEW007 22/21 A2984 RMK AO2
KROA 220916Z 00000KT 10SM BKN004 OVC017 22/21 A2983 RMK AO2 T02220211
KROA 220901Z 00000KT 10SM FEW004 BKN017 OVC033 22/21 A2983 RMK AO2 T02170206
KROA 220854Z 00000KT 10SM SCT005 SCT012 22/21 A2983 RMK AO2 SLP088 T02170211 55001
KROA 220754Z 00000KT 10SM SCT005 SCT012 22/21 A2982 RMK AO2 SLP085 T02170206
KROA 220747Z 09003KT 10SM SCT005 BKN012 BKN018 22/21 A2982 RMK AO2 T02170206
KROA 220654Z 00000KT 10SM SCT018 22/21 A2982 RMK AO2 SLP085 T02170211
KROA 220610Z 13005KT 10SM BKN006 BKN013 OVC018 22/21 A2983 RMK AO2 T02220211
KROA 220554Z 17004KT 10SM BKN004 OVC012 22/22 A2984 RMK AO2 SLP089 60092 T02220217 10272 20222 56005
KROA 220552Z 16003KT 10SM BKN004 OVC012 22/22 A2984 RMK AO2
KROA 220532Z 00000KT 10SM BKN006 OVC013 23/22 A2984 RMK AO2 T02280217
KROA 220509Z 00000KT 10SM SCT005 OVC012 22/21 A2985 RMK AO2 T02220211
KROA 220454Z 11004KT 10SM BKN005 OVC010 23/22 A2984 RMK AO2 SLP091 T02280217 403110222
KROA 220439Z 00000KT 10SM BKN006 BKN029 OVC100 22/22 A2985 RMK AO2 T02220217
KROA 220430Z 00000KT 10SM SCT006 BKN029 OVC100 23/22 A2986 RMK AO2 T02280217
KROA 220354Z 03003KT 10SM SCT090 BKN110 22/21 A2985 RMK AO2 RAB00E13 SLP094 P0001 T02220211
KROA 220338Z 01004KT 10SM FEW005 OVC100 23/22 A2985 RMK AO2 RAB00E13 P0001 T02280217
KROA 220320Z 04004KT 10SM SCT027 OVC100 23/22 A2985 RMK AO2 RAB00E13 P0001 T02280217
KROA 220254Z 10004KT 10SM BKN029 OVC036 23/22 A2986 RMK AO2 RAE41 TSE30 SLP097 P0005 60091 T02280217 51014
KROA 220230Z 00000KT 10SM -RA SCT029 BKN038 OVC110 23/21 A2986 RMK AO2 TSE30 P0005 T02280211
KROA 220204Z 03003KT 3SM TSRA BR BKN030CB OVC049 22/21 A2985 RMK AO2 OCNL LTGIC NE TS NE MOV NE P0005 T02220211
KROA 220154Z 32006KT 3SM TSRA BR FEW017 BKN026 OVC049 22/21 A2986 RMK AO2 TSB18 SLP097 OCNL LTGIC N TS N MOV NE P0086 T02220211
KROA 220149Z 32006KT 1 1/2SM +TSRA BR FEW006 OVC022 22/22 A2986 RMK AO2 TSB18 OCNL LTGIC N TS N MOV NE P0084
KROA 220142Z 28009KT 1SM +TSRA BR FEW007 BKN014 OVC023 22/22 A2986 RMK AO2 TSB18 OCNL LTGIC W TS W MOV NE P0068 T02220217
KROA 220127Z 29010KT 1 3/4SM +TSRA BR FEW007 BKN024 OVC047 23/23 A2985 RMK AO2 TSB18 OCNL LTGIC W TS W MOV NE P0015 T02330228
KROA 220118Z 24005KT 2 1/2SM +TSRA BR BKN025 BKN046 OVC070 24/22 A2984 RMK AO2 TSB18 OCNL LTGIC W TS W MOV NE P0007 T02440222
KROA 220054Z 13006KT 10SM -RA FEW025 BKN070 OVC085 26/22 A2982 RMK AO2 RAB50 SLP083 P0000 T02560217
KROA 212354Z 08006KT 10SM BKN095 BKN150 27/21 A2981 RMK AO2 SLP080 60001 T02720211 10289 20272 56004
KROA 212254Z 00000KT 10SM FEW032 SCT100 BKN150 28/20 A2981 RMK AO2 SLP080 P0001 T02780200
KROA 212154Z 31003KT 10SM FEW032 BKN095 28/19 A2981 RMK AO2 SLP082 P0000 T02780194
KROA 212054Z 00000KT 10SM FEW050 BKN095 BKN120 28/19 A2982 RMK AO2 SLP084 60000 T02780194 56010
KROA 211954Z 27007KT 10SM FEW040 FEW065 OVC110 28/19 A2983 RMK AO2 SLP086 T02780189
KROA 211854Z 26009KT 10SM SCT040 SCT047 BKN055 28/19 A2984 RMK AO2 RAB19E32 SLP090 P0000 T02830194
KROA 211754Z 27008KT 10SM FEW036 FEW070 29/20 A2985 RMK AO2 RAB18E47 SLP094 P0000 60000 T02890200 10311 20250 58004
KROA 211654Z 26007KT 10SM SCT045 30/19 A2986 RMK AO2 SLP095 T03000189
KROA 211554Z 29007KT 10SM SCT040 29/18 A2987 RMK AO2 SLP100 T02940183
KROA 211454Z 31009KT 10SM FEW038 SCT260 29/19 A2987 RMK AO2 SLP099 T02890189 51002
KROA 211354Z 27008KT 10SM FEW037 27/20 A2986 RMK AO2 SLP098 T02720200
KROA 211254Z VRB06KT 10SM FEW031 SCT140 27/20 A2987 RMK AO2 SLP100 T02670200
KROA 211154Z 26005KT 10SM SCT095 25/19 A2986 RMK AO2 RAE1059 SLP096 P0000 60000 T02500194 10250 20239 53006